createdAt,value
2023-04-18T00:01:24.967Z,2.80
2023-04-18T00:03:52.690Z,2.47
2023-04-18T00:06:22.131Z,2.45
2023-04-18T00:08:49.323Z,2.67
2023-04-18T00:11:16.526Z,3.10
2023-04-18T00:13:44.532Z,2.83
2023-04-18T00:16:13.283Z,2.47
2023-04-18T00:18:40.818Z,3.00
2023-04-18T00:21:08.632Z,2.60
2023-04-18T00:23:35.971Z,2.78
2023-04-18T00:26:03.182Z,2.33
2023-04-18T00:28:30.442Z,2.67
2023-04-18T00:30:57.629Z,2.72
2023-04-18T00:33:24.740Z,2.65
2023-04-18T00:35:51.895Z,2.58
2023-04-18T00:38:19.036Z,2.53
2023-04-18T00:40:46.152Z,2.40
2023-04-18T00:43:14.979Z,2.63
2023-04-18T00:45:42.301Z,2.50
2023-04-18T00:48:09.798Z,2.33
2023-04-18T00:50:37.395Z,2.20
2023-04-18T00:53:04.664Z,2.53
2023-04-18T00:55:32.184Z,2.70
2023-04-18T00:57:59.386Z,2.60
2023-04-18T01:00:28.056Z,2.75
2023-04-18T01:02:56.042Z,2.83
2023-04-18T01:05:23.869Z,2.47
2023-04-18T01:07:52.153Z,2.42
2023-04-18T01:10:19.454Z,2.88
2023-04-18T01:12:46.565Z,2.47
2023-04-18T01:15:13.714Z,2.45
2023-04-18T01:17:41.032Z,2.40
2023-04-18T01:20:08.908Z,2.22
2023-04-18T01:22:36.130Z,2.58
2023-04-18T01:25:07.499Z,2.65
2023-04-18T01:27:34.678Z,2.42
2023-04-18T01:30:01.848Z,2.33
2023-04-18T01:32:28.994Z,2.67
2023-04-18T01:34:56.150Z,2.65
2023-04-18T01:37:23.275Z,2.33
2023-04-18T01:39:50.507Z,2.40
2023-04-18T01:42:17.597Z,2.45
2023-04-18T01:44:44.757Z,2.40
2023-04-18T01:47:12.977Z,2.60
2023-04-18T01:49:42.836Z,2.50
2023-04-18T01:52:09.978Z,2.42
2023-04-18T01:54:37.182Z,2.20
2023-04-18T01:57:04.452Z,2.03
2023-04-18T01:59:31.575Z,2.53
2023-04-18T02:01:59.815Z,2.13
2023-04-18T02:04:27.008Z,2.42
2023-04-18T02:06:54.108Z,2.33
2023-04-18T02:09:21.268Z,2.55
2023-04-18T02:11:48.459Z,2.35
2023-04-18T02:14:15.796Z,2.20
2023-04-18T02:16:42.974Z,2.10
2023-04-18T02:19:10.207Z,2.40
2023-04-18T02:21:37.365Z,2.50
2023-04-18T02:24:04.631Z,2.28
2023-04-18T02:26:31.793Z,2.42
2023-04-18T02:28:59.034Z,2.47
2023-04-18T02:31:26.174Z,2.38
2023-04-18T02:33:53.410Z,2.20
2023-04-18T02:36:20.577Z,2.10
2023-04-18T02:38:47.712Z,2.25
2023-04-18T02:41:18.123Z,2.20
2023-04-18T02:43:45.695Z,2.17
2023-04-18T02:46:13.110Z,2.25
2023-04-18T02:48:40.282Z,2.08
2023-04-18T02:51:08.270Z,2.17
2023-04-18T02:53:35.760Z,2.47
2023-04-18T02:56:03.017Z,2.10
2023-04-18T02:58:30.357Z,1.90
2023-04-18T03:00:57.721Z,2.00
2023-04-18T03:03:24.944Z,1.90
2023-04-18T03:05:52.125Z,2.70
2023-04-18T03:08:19.251Z,2.17
2023-04-18T03:10:46.393Z,2.15
2023-04-18T03:13:13.690Z,2.10
2023-04-18T03:15:40.961Z,2.25
2023-04-18T03:18:08.194Z,2.03
2023-04-18T03:20:35.427Z,2.22
2023-04-18T03:23:02.517Z,2.42
2023-04-18T03:25:29.630Z,2.50
2023-04-18T03:27:56.797Z,2.45
2023-04-18T03:30:23.937Z,2.28
2023-04-18T03:32:52.908Z,2.22
2023-04-18T03:37:47.116Z,2.17
2023-04-18T03:40:14.410Z,1.92
2023-04-18T03:42:41.638Z,2.33
2023-04-18T03:45:09.178Z,1.92
2023-04-18T03:47:36.301Z,2.15
2023-04-18T03:50:03.536Z,2.20
2023-04-18T03:52:30.902Z,2.25
2023-04-18T03:54:58.023Z,2.10
2023-04-18T03:57:26.148Z,2.40
2023-04-18T03:59:53.320Z,2.42
2023-04-18T04:02:21.010Z,2.35
2023-04-18T04:04:48.489Z,2.10
2023-04-18T04:07:15.640Z,2.30
2023-04-18T04:09:42.737Z,2.03
2023-04-18T04:12:09.888Z,2.22
2023-04-18T04:14:36.984Z,2.20
2023-04-18T04:17:04.162Z,2.10
2023-04-18T04:19:31.312Z,2.25
2023-04-18T04:21:58.422Z,2.30
2023-04-18T04:24:25.561Z,2.20
2023-04-18T04:26:53.656Z,2.33
2023-04-18T04:29:21.596Z,2.10
2023-04-18T04:31:48.838Z,2.30
2023-04-18T04:34:16.947Z,2.10
2023-04-18T04:36:44.661Z,1.92
2023-04-18T04:39:12.120Z,1.92
2023-04-18T04:41:40.305Z,2.22
2023-04-18T04:44:07.931Z,2.25
2023-04-18T04:46:35.398Z,2.10
2023-04-18T04:49:02.872Z,2.10
2023-04-18T04:51:30.104Z,2.33
2023-04-18T04:53:57.237Z,2.60
2023-04-18T04:56:24.617Z,2.78
2023-04-18T04:58:51.829Z,2.78
2023-04-18T05:01:18.972Z,3.00
2023-04-18T05:03:46.261Z,3.50
2023-04-18T05:06:14.162Z,2.28
2023-04-18T05:08:41.258Z,2.53
2023-04-18T05:11:08.385Z,3.03
2023-04-18T05:13:35.586Z,2.22
2023-04-18T05:16:02.852Z,2.53
2023-04-18T05:18:30.156Z,2.60
2023-04-18T05:20:57.270Z,2.28
2023-04-18T05:23:24.424Z,2.28
2023-04-18T05:25:51.621Z,2.40
2023-04-18T05:28:18.752Z,2.72
2023-04-18T05:30:45.878Z,2.33
2023-04-18T05:33:13.056Z,2.65
2023-04-18T05:35:40.139Z,2.30
2023-04-18T05:38:07.318Z,2.55
2023-04-18T05:40:35.048Z,2.67
2023-04-18T05:43:02.178Z,2.88
2023-04-18T05:45:29.349Z,2.28
2023-04-18T05:47:56.620Z,2.38
2023-04-18T05:50:23.891Z,2.70
2023-04-18T05:52:51.022Z,2.42
2023-04-18T05:55:18.380Z,2.72
2023-04-18T05:57:45.708Z,2.83
2023-04-18T06:00:13.333Z,2.85
2023-04-18T06:02:40.887Z,3.00
2023-04-18T06:05:08.364Z,2.60
2023-04-18T06:07:35.772Z,2.55
2023-04-18T06:10:03.032Z,2.70
2023-04-18T06:12:30.228Z,2.50
2023-04-18T06:14:57.722Z,2.67
2023-04-18T06:17:24.846Z,2.92
2023-04-18T06:19:51.957Z,2.17
2023-04-18T06:22:19.062Z,2.40
2023-04-18T06:24:46.677Z,2.33
2023-04-18T06:27:27.876Z,2.75
2023-04-18T06:29:57.518Z,2.38
2023-04-18T06:32:24.775Z,2.53
2023-04-18T06:34:53.056Z,2.50
2023-04-18T06:37:20.492Z,2.42
2023-04-18T06:39:47.724Z,2.33
2023-04-18T06:42:14.875Z,2.53
2023-04-18T06:44:43.180Z,2.50
2023-04-18T06:47:10.855Z,2.70
2023-04-18T06:49:39.216Z,3.13
2023-04-18T06:52:06.540Z,2.80
2023-04-18T06:54:33.799Z,2.25
2023-04-18T06:57:02.211Z,2.35
2023-04-18T06:59:29.349Z,2.50
2023-04-18T07:01:56.484Z,2.30
2023-04-18T07:04:25.377Z,2.20
2023-04-18T07:11:47.322Z,2.13
2023-04-18T07:14:14.607Z,2.60
2023-04-18T07:16:42.011Z,2.70
2023-04-18T07:19:09.096Z,2.22
2023-04-18T07:21:37.715Z,2.50
2023-04-18T07:24:04.863Z,2.63
2023-04-18T07:26:32.171Z,2.70
2023-04-18T07:28:59.330Z,2.05
2023-04-18T07:31:28.577Z,2.35
2023-04-18T07:33:56.211Z,2.30
2023-04-18T07:36:23.352Z,2.00
2023-04-18T07:38:51.805Z,2.53
2023-04-18T07:41:18.970Z,2.30
2023-04-18T07:43:46.125Z,2.30
2023-04-18T07:46:13.313Z,2.10
2023-04-18T07:48:40.669Z,2.50
2023-04-18T07:51:07.786Z,2.50
2023-04-18T07:53:34.923Z,2.10
2023-04-18T07:56:02.061Z,2.22
2023-04-18T07:58:29.403Z,2.25
2023-04-18T08:00:56.777Z,2.22
2023-04-18T08:03:24.207Z,2.00
2023-04-18T08:05:51.978Z,2.30
2023-04-18T08:08:19.288Z,2.40
2023-04-18T08:10:46.492Z,2.40
2023-04-18T08:13:13.758Z,2.25
2023-04-18T08:15:41.206Z,2.20
2023-04-18T08:18:08.386Z,2.33
2023-04-18T08:20:37.272Z,2.00
2023-04-18T08:23:08.637Z,2.03
2023-04-18T08:25:36.965Z,2.10
2023-04-18T08:28:04.370Z,2.38
2023-04-18T08:30:31.814Z,2.00
2023-04-18T08:33:00.237Z,2.40
2023-04-18T08:35:27.792Z,2.70
2023-04-18T08:37:54.899Z,2.20
2023-04-18T08:40:22.028Z,2.38
2023-04-18T08:42:49.938Z,2.20
2023-04-18T08:45:18.815Z,2.15
2023-04-18T08:47:46.163Z,2.38
2023-04-18T08:50:13.319Z,2.30
2023-04-18T08:52:40.809Z,1.85
2023-04-18T08:55:09.394Z,2.05
2023-04-18T08:57:36.851Z,1.95
2023-04-18T09:00:11.607Z,2.10
2023-04-18T09:02:42.771Z,2.50
2023-04-18T09:05:14.296Z,2.08
2023-04-18T09:07:42.175Z,2.28
2023-04-18T09:10:10.145Z,1.73
2023-04-18T09:12:50.167Z,2.30
2023-04-18T09:15:20.352Z,2.00
2023-04-18T09:17:53.871Z,1.90
2023-04-18T09:20:35.249Z,2.00
2023-04-18T09:23:03.888Z,1.80
2023-04-18T09:25:34.855Z,2.03
2023-04-18T09:28:03.101Z,1.90
2023-04-18T09:30:40.754Z,1.98
2023-04-18T09:33:12.723Z,2.03
2023-04-18T09:35:40.058Z,1.88
2023-04-18T09:38:08.289Z,2.13
2023-04-18T09:40:35.668Z,2.05
2023-04-18T09:43:18.255Z,1.63
2023-04-18T09:45:47.552Z,1.98
2023-04-18T09:48:14.832Z,1.95
2023-04-18T09:50:42.138Z,1.65
2023-04-18T09:53:09.316Z,1.70
2023-04-18T09:55:37.492Z,2.00
2023-04-18T09:58:04.824Z,1.73
2023-04-18T10:00:32.038Z,1.95
2023-04-18T10:03:00.204Z,1.77
2023-04-18T10:05:31.576Z,2.00
2023-04-18T10:07:59.053Z,2.10
2023-04-18T10:10:27.606Z,2.00
2023-04-18T10:12:55.762Z,2.00
2023-04-18T10:15:24.294Z,2.03
2023-04-18T10:18:03.625Z,1.98
2023-04-18T10:20:33.170Z,1.92
2023-04-18T10:23:00.874Z,1.80
2023-04-18T10:25:40.364Z,1.63
2023-04-18T10:28:08.289Z,2.17
2023-04-18T10:30:41.128Z,1.90
2023-04-18T10:33:31.035Z,1.77
2023-04-18T10:36:01.541Z,2.20
2023-04-18T10:38:28.791Z,2.10
2023-04-18T10:41:22.462Z,2.00
2023-04-18T10:44:08.744Z,2.00
2023-04-18T10:46:36.240Z,1.88
2023-04-18T10:49:35.541Z,2.20
2023-04-18T10:52:03.320Z,2.15
2023-04-18T10:54:42.723Z,1.90
2023-04-18T10:57:11.205Z,2.00
2023-04-18T10:59:40.924Z,1.75
2023-04-18T11:02:28.890Z,2.20
2023-04-18T11:05:04.733Z,1.50
2023-04-18T11:07:44.592Z,1.73
2023-04-18T11:10:11.814Z,1.67
2023-04-18T11:12:42.057Z,1.80
2023-04-18T11:15:13.091Z,1.55
2023-04-18T11:17:40.750Z,1.67
2023-04-18T11:20:12.931Z,1.90
2023-04-18T11:22:45.991Z,1.65
2023-04-18T11:25:13.292Z,1.90
2023-04-18T11:27:44.519Z,1.92
2023-04-18T11:30:12.487Z,1.63
2023-04-18T11:32:39.833Z,1.63
2023-04-18T11:35:09.325Z,1.85
2023-04-18T11:37:40.815Z,2.10
2023-04-18T11:40:11.248Z,1.80
2023-04-18T11:42:39.218Z,1.63
2023-04-18T11:45:16.275Z,1.63
2023-04-18T11:47:44.049Z,1.58
2023-04-18T11:50:12.290Z,1.70
2023-04-18T11:52:40.919Z,1.73
2023-04-18T11:55:14.924Z,1.40
2023-04-18T11:57:42.444Z,1.80
2023-04-18T12:00:12.285Z,1.50
2023-04-18T12:02:43.576Z,1.50
2023-04-18T12:05:12.149Z,1.83
2023-04-18T12:07:40.839Z,1.40
2023-04-18T12:10:27.682Z,1.48
2023-04-18T12:12:55.915Z,1.83
2023-04-18T12:15:27.010Z,1.50
2023-04-18T12:17:57.955Z,1.48
2023-04-18T12:20:25.920Z,1.52
2023-04-18T12:22:55.013Z,1.40
2023-04-18T12:25:26.715Z,1.52
2023-04-18T12:27:54.759Z,1.75
2023-04-18T12:30:25.568Z,1.52
2023-04-18T12:32:53.977Z,1.65
2023-04-18T12:35:21.736Z,1.60
2023-04-18T12:37:49.603Z,1.38
2023-04-18T12:40:18.892Z,1.70
2023-04-18T12:42:46.788Z,1.73
2023-04-18T12:45:14.595Z,1.13
2023-04-18T12:47:42.730Z,1.60
2023-04-18T12:50:11.439Z,1.70
2023-04-18T12:52:39.582Z,1.70
2023-04-18T12:55:07.652Z,1.63
2023-04-18T12:57:34.978Z,1.40
2023-04-18T13:00:02.258Z,1.60
2023-04-18T13:02:30.128Z,1.48
2023-04-18T13:04:57.541Z,1.40
2023-04-18T13:07:25.259Z,1.50
2023-04-18T13:09:52.400Z,1.67
2023-04-18T13:12:19.537Z,1.50
2023-04-18T13:14:47.013Z,1.50
2023-04-18T13:17:14.248Z,1.60
2023-04-18T13:19:41.563Z,1.45
2023-04-18T13:22:08.741Z,1.50
2023-04-18T13:24:37.083Z,1.30
2023-04-18T13:27:10.297Z,1.40
2023-04-18T13:29:39.023Z,1.05
2023-04-18T13:32:09.753Z,1.70
2023-04-18T13:34:44.415Z,1.55
2023-04-18T13:37:11.590Z,1.52
2023-04-18T13:39:38.830Z,1.42
2023-04-18T13:42:07.515Z,1.25
2023-04-18T13:44:38.355Z,1.70
2023-04-18T13:47:06.231Z,1.40
2023-04-18T13:49:36.437Z,1.42
2023-04-18T13:52:04.312Z,1.30
2023-04-18T13:54:32.239Z,1.50
2023-04-18T13:57:03.134Z,1.48
2023-04-18T13:59:31.739Z,1.73
2023-04-18T14:01:59.217Z,1.40
2023-04-18T14:04:27.326Z,1.60
2023-04-18T14:06:54.624Z,1.63
2023-04-18T14:09:21.844Z,1.75
2023-04-18T14:11:49.032Z,1.65
2023-04-18T14:14:16.173Z,1.40
2023-04-18T14:16:43.455Z,1.52
2023-04-18T14:19:10.602Z,1.58
2023-04-18T14:21:37.765Z,1.60
2023-04-18T14:24:06.113Z,1.60
2023-04-18T14:26:33.274Z,1.50
2023-04-18T14:29:00.596Z,1.50
2023-04-18T14:31:28.252Z,1.73
2023-04-18T14:33:55.408Z,1.75
2023-04-18T14:36:22.528Z,2.10
2023-04-18T14:38:50.199Z,1.70
2023-04-18T14:41:17.450Z,1.60
2023-04-18T14:43:44.710Z,2.00
2023-04-18T14:46:13.176Z,2.40
2023-04-18T14:48:40.413Z,2.40
2023-04-18T14:51:07.857Z,2.58
2023-04-18T14:53:35.113Z,1.98
2023-04-18T14:56:02.352Z,1.98
2023-04-18T14:58:29.530Z,2.20
2023-04-18T15:00:56.804Z,1.92
2023-04-18T15:03:24.173Z,1.83
2023-04-18T15:05:53.186Z,1.90
2023-04-18T15:08:20.665Z,2.40
2023-04-18T15:10:47.850Z,2.17
2023-04-18T15:13:15.102Z,1.88
2023-04-18T15:15:42.253Z,1.75
2023-04-18T15:18:10.988Z,1.80
2023-04-18T15:20:39.489Z,1.80
2023-04-18T15:23:07.056Z,1.75
2023-04-18T15:25:35.129Z,1.98
2023-04-18T15:28:02.306Z,2.28
2023-04-18T15:30:29.470Z,1.67
2023-04-18T15:32:57.218Z,1.70
2023-04-18T15:35:24.465Z,2.00
2023-04-18T15:37:53.663Z,1.58
2023-04-18T15:40:20.996Z,2.10
2023-04-18T15:42:49.593Z,1.77
2023-04-18T15:45:16.736Z,1.90
2023-04-18T15:47:44.316Z,1.63
2023-04-18T15:50:12.155Z,1.77
2023-04-18T15:52:41.476Z,1.85
2023-04-18T15:55:10.917Z,2.10
2023-04-18T15:57:38.073Z,1.92
2023-04-18T16:00:10.135Z,1.90
2023-04-18T16:02:37.625Z,1.90
2023-04-18T16:05:05.310Z,2.00
2023-04-18T16:07:32.398Z,1.75
2023-04-18T16:10:02.858Z,1.75
2023-04-18T16:12:30.120Z,1.77
2023-04-18T16:14:57.278Z,1.98
2023-04-18T16:17:24.511Z,1.67
2023-04-18T16:19:51.851Z,1.88
2023-04-18T16:22:19.126Z,2.00
2023-04-18T16:24:46.266Z,2.00
2023-04-18T16:27:13.431Z,2.03
2023-04-18T16:29:40.643Z,1.92
2023-04-18T16:32:08.371Z,2.00
2023-04-18T16:34:35.576Z,1.80
2023-04-18T16:37:02.695Z,2.00
2023-04-18T16:39:31.033Z,2.10
2023-04-18T16:41:58.217Z,2.50
2023-04-18T16:44:25.478Z,2.15
2023-04-18T16:46:52.721Z,2.50
2023-04-18T16:49:20.557Z,2.13
2023-04-18T16:51:47.773Z,2.30
2023-04-18T16:54:15.273Z,2.08
2023-04-18T16:56:44.596Z,2.40
2023-04-18T16:59:11.844Z,2.40
2023-04-18T17:01:39.135Z,2.40
2023-04-18T17:04:06.376Z,2.22
2023-04-18T17:06:34.184Z,2.25
2023-04-18T17:09:01.309Z,2.03
2023-04-18T17:11:28.483Z,2.33
2023-04-18T17:13:56.371Z,2.40
2023-04-18T17:16:23.471Z,2.13
2023-04-18T17:18:50.650Z,2.40
2023-04-18T17:21:17.802Z,2.10
2023-04-18T17:23:44.959Z,1.92
2023-04-18T17:26:12.114Z,2.38
2023-04-18T17:28:39.251Z,2.30
2023-04-18T17:31:06.583Z,1.75
2023-04-18T17:33:33.715Z,2.25
2023-04-18T17:36:00.845Z,2.13
2023-04-18T17:38:28.046Z,2.33
2023-04-18T17:41:02.078Z,2.33
2023-04-18T17:43:29.480Z,1.95
2023-04-18T17:45:56.977Z,2.00
2023-04-18T17:48:24.284Z,2.00
2023-04-18T17:50:51.383Z,1.80
2023-04-18T17:53:18.868Z,2.20
2023-04-18T17:55:48.887Z,1.90
2023-04-18T17:58:16.893Z,2.00
2023-04-18T18:00:44.127Z,1.95
2023-04-18T18:03:14.113Z,1.77
2023-04-18T18:05:42.244Z,2.38
2023-04-18T18:08:09.380Z,2.03
2023-04-18T18:10:36.801Z,2.17
2023-04-18T18:13:04.125Z,2.45
2023-04-18T18:15:31.611Z,2.22
2023-04-18T18:17:59.128Z,2.72
2023-04-18T18:20:27.369Z,2.53
2023-04-18T18:22:55.114Z,2.17
2023-04-18T18:25:22.273Z,2.45
2023-04-18T18:27:51.278Z,2.40
2023-04-18T18:32:46.350Z,2.22
2023-04-18T18:35:13.760Z,2.53
2023-04-18T18:37:41.135Z,2.42
2023-04-18T18:40:08.702Z,2.55
2023-04-18T18:42:35.854Z,2.47
2023-04-18T18:45:03.630Z,2.30
2023-04-18T18:47:30.920Z,2.63
2023-04-18T18:49:58.149Z,2.92
2023-04-18T18:52:27.957Z,2.97
2023-04-18T18:54:55.593Z,2.75
2023-04-18T18:57:22.875Z,2.47
2023-04-18T18:59:50.348Z,2.80
2023-04-18T19:02:17.699Z,2.20
2023-04-18T19:04:45.350Z,2.50
2023-04-18T19:07:12.565Z,3.30
2023-04-18T19:09:39.740Z,3.40
2023-04-18T19:12:07.141Z,2.90
2023-04-18T19:14:34.371Z,2.85
2023-04-18T19:17:01.502Z,2.70
2023-04-18T19:19:28.656Z,3.42
2023-04-18T19:21:55.835Z,2.83
2023-04-18T19:24:22.995Z,2.72
2023-04-18T19:26:50.132Z,2.60
2023-04-18T19:29:18.099Z,3.33
2023-04-18T19:31:45.635Z,2.80
2023-04-18T19:34:13.452Z,2.97
2023-04-18T19:36:40.641Z,2.85
2023-04-18T19:39:08.914Z,3.05
2023-04-18T19:41:36.129Z,2.97
2023-04-18T19:44:03.952Z,2.60
2023-04-18T19:46:31.265Z,2.70
2023-04-18T19:48:58.415Z,2.83
2023-04-18T19:51:27.703Z,2.80
2023-04-18T19:53:55.573Z,2.80
2023-04-18T19:56:22.773Z,2.53
2023-04-18T19:58:50.042Z,2.67
2023-04-18T20:01:18.775Z,2.38
2023-04-18T20:03:47.024Z,2.75
2023-04-18T20:06:14.532Z,2.40
2023-04-18T20:08:42.020Z,2.53
2023-04-18T20:11:13.998Z,2.25
2023-04-18T20:13:41.663Z,2.72
2023-04-18T20:16:09.411Z,2.58
2023-04-18T20:18:40.145Z,2.63
2023-04-18T20:21:07.953Z,2.60
2023-04-18T20:23:35.838Z,2.97
2023-04-18T20:26:04.201Z,2.60
2023-04-18T20:28:31.751Z,2.33
2023-04-18T20:30:58.947Z,2.40
2023-04-18T20:33:26.177Z,2.30
2023-04-18T20:35:54.682Z,2.42
2023-04-18T20:38:26.055Z,2.25
2023-04-18T20:40:54.364Z,2.63
2023-04-18T20:43:21.546Z,2.55
2023-04-18T20:45:51.436Z,2.50
2023-04-18T20:48:18.908Z,2.50
2023-04-18T20:50:51.215Z,2.65
2023-04-18T20:53:25.212Z,2.28
2023-04-18T20:55:52.347Z,2.33
2023-04-18T20:58:19.568Z,2.42
2023-04-18T21:00:48.244Z,2.72
2023-04-18T21:03:16.287Z,2.30
2023-04-18T21:05:44.812Z,2.50
2023-04-18T21:08:12.006Z,2.30
2023-04-18T21:10:39.651Z,2.50
2023-04-18T21:13:06.750Z,2.40
2023-04-18T21:15:35.230Z,2.40
2023-04-18T21:18:02.448Z,2.53
2023-04-18T21:20:29.680Z,1.95
2023-04-18T21:22:56.860Z,2.63
2023-04-18T21:25:24.019Z,2.15
2023-04-18T21:27:51.287Z,2.70
2023-04-18T21:30:18.576Z,3.10
2023-04-18T21:32:47.351Z,2.40
2023-04-18T21:35:16.054Z,2.20
2023-04-18T21:37:44.350Z,1.85
2023-04-18T21:40:11.555Z,2.33
2023-04-18T21:42:38.630Z,1.92
2023-04-18T21:45:06.360Z,2.53
2023-04-18T21:47:33.631Z,2.20
2023-04-18T21:50:00.715Z,2.20
2023-04-18T21:52:27.885Z,1.95
2023-04-18T21:54:55.204Z,2.67
2023-04-18T21:57:22.363Z,2.20
2023-04-18T21:59:49.490Z,2.20
2023-04-18T22:02:16.964Z,2.22
2023-04-18T22:04:44.270Z,1.90
2023-04-18T22:07:12.422Z,2.53
2023-04-18T22:09:39.781Z,2.33
2023-04-18T22:12:06.915Z,1.98
2023-04-18T22:14:34.096Z,1.92
2023-04-18T22:17:04.809Z,2.35
2023-04-18T22:19:32.037Z,2.40
2023-04-18T22:21:59.310Z,2.22
2023-04-18T22:24:26.410Z,2.40
2023-04-18T22:26:53.650Z,1.80
2023-04-18T22:29:20.893Z,2.10
2023-04-18T22:31:48.119Z,2.45
2023-04-18T22:34:15.401Z,2.10
2023-04-18T22:36:43.922Z,2.20
2023-04-18T22:39:12.137Z,2.10
2023-04-18T22:41:39.431Z,1.92
2023-04-18T22:44:06.600Z,2.20
2023-04-18T22:46:33.776Z,2.05
2023-04-18T22:49:00.949Z,2.00
2023-04-18T22:51:28.733Z,2.30
2023-04-18T22:53:56.576Z,2.30
2023-04-18T22:56:23.757Z,2.10
2023-04-18T22:58:51.010Z,2.10
2023-04-18T23:01:18.489Z,2.17
2023-04-18T23:03:45.970Z,1.73
2023-04-18T23:06:13.228Z,1.80
2023-04-18T23:08:40.293Z,2.13
2023-04-18T23:11:07.449Z,2.15
2023-04-18T23:13:34.558Z,2.47
2023-04-18T23:16:01.743Z,2.25
2023-04-18T23:18:31.939Z,2.17
2023-04-18T23:21:00.844Z,2.33
2023-04-18T23:23:27.926Z,2.00
2023-04-18T23:25:55.145Z,2.03
2023-04-18T23:28:22.350Z,1.85
2023-04-18T23:30:50.397Z,2.10
2023-04-18T23:33:17.464Z,2.05
2023-04-18T23:35:44.574Z,1.90
2023-04-18T23:38:11.796Z,1.50
2023-04-18T23:40:38.892Z,2.00
2023-04-18T23:43:06.017Z,2.00
2023-04-18T23:45:33.247Z,1.85
2023-04-18T23:48:00.894Z,2.00
2023-04-18T23:50:28.153Z,1.90
2023-04-18T23:52:55.512Z,1.95
2023-04-18T23:55:22.781Z,1.90
2023-04-18T23:57:50.055Z,1.52
